• Join FlightAware (Why Join?)
  • Login
  • US Flag 
06:06PM EDT


 

Airport Tracker/Info


-or-


 

Live Flight TrackerFlight Track Log ✈ RPA3228 ✈ 21-Apr-2013 ✈ KCHS - KDCA

Flight Track Log - Related Links

Times and Time Zones

All times are in EDT time to prevent confusion due to time zone crossing. See the RPA3228 flight status page for this flight to view local times or setup timezone preferences in your user account.

Time Position Orientation Groundspeed Altitude Reporting Facility
EDT Latitude Longitude Course Direction KTS MPH feet Rate Location/Type
08:14AM 32.9625 -80.0156 13° North 164 189 3,300  Level Jacksonville Center
08:15AM 33.0289 -79.9961 14° North 197 227 5,700 2,880 Climbing Jacksonville Center
08:16AM 33.1078 -79.9739 13° North 245 282 9,100 2,940 Climbing Jacksonville Center
08:17AM 33.1839 -79.9292 26° Northeast 283 326 11,600 2,520 Climbing Jacksonville Center
08:18AM 33.4339 -79.8699 North  Level FlightAware Approximate
08:18AM 33.2703 -79.8767 27° Northeast 313 360 14,200  Level Jacksonville Center
08:19AM 33.5267 -79.8448 13° North  Level FlightAware Approximate
08:19AM 33.3589 -79.8239 26° Northeast 339 390 16,800  Level Jacksonville Center
08:20AM 33.4514 -79.7658 28° Northeast 351 404 18,600 2,340 Climbing Jacksonville Center
08:21AM 33.5458 -79.7078 27° Northeast 369 425 21,500 2,400 Climbing Jacksonville Center
08:22AM 33.6442 -79.7142 357° North 353 406 23,400 1,980 Climbing Jacksonville Center
08:23AM 33.7269 -79.7736 329° Northwest 331 381 25,500 1,920 Climbing Jacksonville Center
08:24AM 33.8181 -79.8328 332° Northwest 343 395 27,300 1,620 Climbing Jacksonville Center
08:26AM 34.0022 -79.9417 334° Northwest 363 418 30,500 1,200 Climbing Jacksonville Center
08:27AM 34.0964 -79.8608 35° Northeast 333 383 31,000 240 Climbing Jacksonville Center
08:28AM 34.1344 -79.7139 73° East 346 398 31,000 60 Level Jacksonville Center
08:29AM 34.1744 -79.5719 71° East 395 455 31,200 600 Climbing Jacksonville Center
08:30AM 34.2144 -79.4247 72° East 444 511 32,300 540 Climbing Jacksonville Center
08:32AM 34.3742 -79.2000 49° Northeast 399 459 33,000 180 Climbing Washington Center
08:33AM 34.4822 -79.1369 26° Northeast 404 465 33,000  Level Washington Center
08:34AM 34.5864 -79.0783 25° Northeast 409 471 33,000  Level Washington Center
08:35AM 34.6967 -79.0147 25° Northeast 415 478 33,000  Level Washington Center
08:36AM 34.8089 -78.9514 25° Northeast 429 494 33,000 -60 Level Washington Center
08:37AM 34.9214 -78.8850 26° Northeast 434 499 32,900 -600 Descending Washington Center
08:38AM 35.0339 -78.8186 26° Northeast 434 499 31,900 -960 Descending Washington Center
08:39AM 35.1483 -78.7519 25° Northeast 434 499 31,000 -480 Descending Washington Center
08:40AM 35.2606 -78.6853 26° Northeast 439 505 31,000  Level Washington Center
08:41AM 35.3667 -78.6231 26° Northeast 450 518 31,000  Level Washington Center
08:42AM 35.4894 -78.5511 26° Northeast 450 518 31,000  Level Washington Center
08:43AM 35.5889 -78.4883 27° Northeast 450 518 31,000 -420 Level Washington Center
08:44AM 35.7094 -78.4211 24° Northeast 450 518 30,200 -900 Descending Washington Center
08:45AM 35.8322 -78.3486 26° Northeast 467 537 29,300 -1,020 Descending Washington Center
08:46AM 35.9550 -78.2733 26° Northeast 473 544 28,200 -1,080 Descending Washington Center
08:47AM 36.0756 -78.2031 25° Northeast 473 544 27,200 -600 Descending Washington Center
08:48AM 36.1917 -78.1297 27° Northeast 467 537 27,000 -120 Descending Washington Center
08:49AM 36.3122 -78.0589 25° Northeast 467 537 27,000  Level Washington Center
08:50AM 36.4306 -77.9878 26° Northeast 467 537 27,000  Level Washington Center
08:51AM 36.5467 -77.9136 27° Northeast 472 543 27,000 -300 Level Washington Center
08:52AM 36.6650 -77.8394 27° Northeast 472 543 26,400 -840 Descending Washington Center
08:53AM 36.7831 -77.7678 26° Northeast 472 543 25,400 -720 Descending Washington Center
08:54AM 36.8992 -77.6983 26° Northeast 467 537 25,000 -360 Descending Washington Center
08:55AM 37.0086 -77.6311 26° Northeast 459 528 24,700 -660 Descending Washington Center
08:56AM 37.1200 -77.5844 18° North 438 504 23,700 -1,020 Descending Washington Center
08:57AM 37.2333 -77.5456 15° North 426 490 22,700 -900 Descending Washington Center
08:58AM 37.3425 -77.5042 17° North 421 484 22,000 -360 Descending Washington Center
08:59AM 37.4494 -77.4650 16° North 415 478 22,000 -300 Level Washington Center
09:00AM 37.5692 -77.4233 15° North 405 466 21,500 -720 Descending Washington Center
09:01AM 37.6822 -77.3814 16° North 405 466 20,600 -960 Descending Washington Center
09:02AM 37.8019 -77.3369 16° North 424 488 19,600 -1,260 Descending Washington Center
09:03AM 37.9172 -77.2947 16° North 424 488 18,100 -2,100 Descending Washington Center
09:04AM 38.0261 -77.2525 17° North 419 482 15,400 -2,400 Descending Washington Center
09:05AM 38.1289 -77.2206 14° North 402 463 13,400 -2,040 Descending Washington Center
09:06AM 38.2294 -77.1831 16° North 382 440 11,400 -1,800 Descending Washington Center
09:07AM 38.3258 -77.1533 14° North 369 425 9,800 -1,320 Descending Washington Center
09:08AM 38.3989 -77.1361 10° North 329 379 8,800 -1,200 Descending Washington Center
09:09AM 38.4742 -77.1192 10° North 296 341 7,400 -1,620 Descending Washington Center
09:10AM 38.5472 -77.1075 North 271 312 5,600 -1,500 Descending Washington Center
09:11AM 38.6103 -77.0847 16° North 251 289 4,500 -1,200 Descending Washington Center
09:12AM 38.6500 -77.0667 20° North 228 262 4,000 -1,080 Descending Potomac TRACON
09:12AM 38.7000 -77.0500 15° North 210 242 3,100 -1,020 Descending Potomac TRACON
09:13AM 38.7333 -77.0333 21° North 150 173 2,100 -900 Descending Potomac TRACON
09:14AM 38.7833 -77.0333 360° North 132 152 1,400 -720 Descending Potomac TRACON